Time;durP1;ratioP1;P1;durP2;ratioP2;P2;SDS_P1;SDS_P2;PMS_P1;PMS_P2;Temp;Humidity;BMP_temperature;BMP_pressure;BME280_temperature;BME280_humidity;BME280_pressure;Samples;Min_cycle;Max_cycle;Signal;HPM_P1;HPM_P2
2022/09/12 00:01:50;;;;;;;18.98;15.27;;;;;;;16.45;66.96;101648.75;6305130;22;20011;-59
2022/09/12 00:04:16;;;;;;;18.85;15.00;;;;;;;16.44;66.70;101646.25;6305496;22;20010;-59
2022/09/12 00:06:41;;;;;;;17.13;15.38;;;;;;;16.38;66.69;101642.56;6303722;22;20007;-59
2022/09/12 00:09:11;;;;;;;17.77;15.98;;;;;;;16.34;66.93;101640.56;6304180;22;20011;-59
2022/09/12 00:11:42;;;;;;;22.77;15.57;;;;;;;16.34;66.97;101633.00;6304406;22;20007;-58
2022/09/12 00:14:10;;;;;;;17.83;16.02;;;;;;;16.30;67.05;101631.03;6303066;22;20030;-59
2022/09/12 00:16:36;;;;;;;18.92;15.20;;;;;;;16.29;67.00;101635.78;6304122;22;20042;-59
2022/09/12 00:19:02;;;;;;;20.17;16.30;;;;;;;16.26;66.74;101632.69;6305147;22;20094;-58
2022/09/12 00:21:27;;;;;;;20.35;16.13;;;;;;;16.26;66.73;101627.94;6303609;22;20710;-59
2022/09/12 00:23:53;;;;;;;17.85;16.02;;;;;;;16.24;66.79;101626.53;6302774;22;20010;-59
2022/09/12 00:26:19;;;;;;;18.58;16.42;;;;;;;16.22;66.68;101628.75;6304607;22;20003;-59
2022/09/12 00:28:45;;;;;;;18.77;16.77;;;;;;;16.19;66.66;101625.41;6302718;22;20047;-58
2022/09/12 00:31:16;;;;;;;18.38;16.05;;;;;;;16.13;66.71;101626.47;6304829;22;20010;-58
2022/09/12 00:33:42;;;;;;;19.20;17.00;;;;;;;16.15;66.65;101629.00;6303777;22;20327;-58
2022/09/12 00:36:10;;;;;;;21.23;17.10;;;;;;;16.14;67.10;101618.91;6304476;22;20007;-58
2022/09/12 00:38:37;;;;;;;19.30;16.88;;;;;;;16.12;67.02;101623.94;6303112;22;20042;-59
2022/09/12 00:41:17;;;;;;;19.25;17.20;;;;;;;16.07;67.21;101619.16;6304028;22;20420;-58
2022/09/12 00:43:46;;;;;;;20.38;16.50;;;;;;;16.03;66.94;101623.59;6304766;22;20057;-58
2022/09/12 00:46:34;;;;;;;22.30;16.90;;;;;;;16.13;67.25;101614.44;6305027;22;20541;-59
2022/09/12 00:49:14;;;;;;;19.27;17.13;;;;;;;16.04;67.22;101611.31;6306063;22;20419;-59
2022/09/12 00:51:46;;;;;;;18.73;16.75;;;;;;;16.03;67.32;101608.75;6306010;22;20033;-59
2022/09/12 00:54:16;;;;;;;17.97;15.73;;;;;;;16.00;67.05;101610.16;6306032;22;20003;-59
2022/09/12 00:56:44;;;;;;;18.63;16.05;;;;;;;15.98;66.75;101611.53;6306550;22;20018;-59
2022/09/12 00:59:26;;;;;;;20.52;16.70;;;;;;;16.03;67.01;101606.78;6306151;22;20133;-59
2022/09/12 01:01:52;;;;;;;18.48;16.58;;;;;;;15.94;67.13;101600.88;6306095;22;20010;-59
2022/09/12 01:04:20;;;;;;;19.92;17.73;;;;;;;15.91;67.22;101603.38;6305605;22;20007;-59
2022/09/12 01:06:47;;;;;;;19.52;16.40;;;;;;;15.89;67.16;101589.66;6306555;22;20014;-59
2022/09/12 01:09:17;;;;;;;19.85;17.75;;;;;;;15.88;67.13;101601.13;6306035;22;20035;-59
2022/09/12 01:11:45;;;;;;;18.75;16.85;;;;;;;15.89;67.08;101589.66;6305414;22;20596;-59
2022/09/12 01:14:12;;;;;;;18.73;16.70;;;;;;;15.88;67.09;101592.75;6306426;22;19999;-59
2022/09/12 01:16:38;;;;;;;18.00;16.10;;;;;;;15.85;67.10;101588.50;6304284;22;20006;-59
2022/09/12 01:19:23;;;;;;;18.13;16.33;;;;;;;15.91;67.39;101590.22;6305854;22;20324;-59
2022/09/12 01:21:57;;;;;;;18.98;17.08;;;;;;;15.85;67.31;101590.47;6306388;22;20086;-58
2022/09/12 01:24:37;;;;;;;18.38;15.82;;;;;;;15.83;67.31;101585.13;6305139;22;20072;-58
2022/09/12 01:27:17;;;;;;;17.38;15.38;;;;;;;15.79;67.54;101583.16;6305284;22;20026;-59
2022/09/12 01:30:15;;;;;;;17.65;15.23;;;;;;;15.84;67.28;101578.44;6303760;22;20056;-59
2022/09/12 01:32:58;;;;;;;18.10;15.70;;;;;;;15.80;67.10;101568.91;6305671;22;20003;-58
2022/09/12 01:35:55;;;;;;;18.95;16.63;;;;;;;15.82;67.27;101569.44;6306285;22;20016;-58
2022/09/12 01:38:35;;;;;;;20.90;17.60;;;;;;;15.79;67.41;101583.16;6305577;22;20075;-59
2022/09/12 01:41:16;;;;;;;19.73;17.58;;;;;;;15.75;67.39;101568.84;6305421;22;20326;-58
2022/09/12 01:43:57;;;;;;;20.85;17.58;;;;;;;15.79;67.39;101569.97;6306477;22;20359;-59
2022/09/12 01:46:58;;;;;;;19.63;17.55;;;;;;;15.79;67.29;101569.97;6305328;22;20014;-59
2022/09/12 01:49:31;;;;;;;20.63;18.30;;;;;;;15.63;67.25;101573.78;6303184;22;20022;-60
2022/09/12 01:52:45;;;;;;;22.40;19.08;;;;;;;15.74;67.22;101567.16;6305898;22;20018;-58
2022/09/12 01:55:17;;;;;;;19.92;17.75;;;;;;;15.66;67.61;101571.31;6285011;22;20014;-59
2022/09/12 01:57:47;;;;;;;;;;;;;;;15.90;67.07;101566.13;6307138;22;20018;-59
2022/09/12 02:00:13;;;;;;;20.17;18.05;;;;;;;15.62;67.11;101552.50;6304603;22;19931;-59
2022/09/12 02:03:01;;;;;;;21.67;18.95;;;;;;;15.69;67.63;101558.75;6307040;22;20365;-59
2022/09/12 02:05:42;;;;;;;20.67;17.38;;;;;;;15.65;67.42;101552.00;6304254;22;20224;-58
2022/09/12 02:08:16;;;;;;;22.38;18.05;;;;;;;15.57;67.63;101550.53;6307482;22;20110;-59
2022/09/12 02:10:46;;;;;;;22.83;19.15;;;;;;;15.52;67.33;101535.63;6304248;22;20010;-58
2022/09/12 02:13:25;;;;;;;22.58;18.88;;;;;;;15.56;67.74;101542.38;6305788;22;20014;-59
2022/09/12 02:15:55;;;;;;;25.33;18.70;;;;;;;15.51;67.92;101542.34;6304397;22;20431;-59
2022/09/12 02:18:26;;;;;;;19.98;17.70;;;;;;;15.46;67.91;101538.41;6305440;22;20083;-58
2022/09/12 02:20:53;;;;;;;20.08;17.95;;;;;;;15.49;67.54;101542.63;6304103;22;20081;-58
2022/09/12 02:23:43;;;;;;;21.63;17.38;;;;;;;15.55;67.62;101541.53;6305352;22;20737;-58
2022/09/12 02:26:39;;;;;;;19.90;17.83;;;;;;;15.56;67.67;101545.19;6305253;22;20037;-58
2022/09/12 02:29:05;;;;;;;20.30;18.10;;;;;;;15.43;67.95;101538.94;6303159;22;20008;-58
2022/09/12 02:31:33;;;;;;;19.52;17.35;;;;;;;15.41;67.67;101546.78;6304707;22;20015;-58
2022/09/12 02:34:13;;;;;;;20.23;17.98;;;;;;;15.43;67.40;101527.75;6305837;22;19999;-59
2022/09/12 02:36:42;;;;;;;20.65;18.40;;;;;;;15.38;67.79;101550.09;6306203;22;20450;-59
2022/09/12 02:39:08;;;;;;;23.80;18.33;;;;;;;15.35;67.54;101547.00;6306252;22;20007;-59
2022/09/12 02:41:34;;;;;;;20.95;18.73;;;;;;;15.34;67.80;101545.31;6304565;22;20022;-58
2022/09/12 02:44:00;;;;;;;21.02;18.77;;;;;;;15.35;67.74;101541.41;6304753;22;20007;-58
2022/09/12 02:46:32;;;;;;;21.15;18.95;;;;;;;15.33;67.96;101536.09;6305174;22;20045;-58
2022/09/12 02:48:58;;;;;;;23.33;19.13;;;;;;;15.33;67.87;101535.25;6304877;22;20003;-58
2022/09/12 02:51:24;;;;;;;21.55;19.25;;;;;;;15.31;67.69;101531.88;6303617;22;20007;-59
2022/09/12 02:53:50;;;;;;;24.38;19.77;;;;;;;15.32;68.39;101527.94;6305086;22;20065;-59
2022/09/12 02:56:24;;;;;;;25.13;18.67;;;;;;;15.30;68.34;101528.22;6302595;22;20328;-58
2022/09/12 02:58:50;;;;;;;23.15;19.08;;;;;;;15.28;68.01;101524.84;6304533;22;20007;-59
2022/09/12 03:01:35;;;;;;;24.45;18.88;;;;;;;15.31;68.35;101524.31;6303134;22;20423;-59
2022/09/12 03:04:12;;;;;;;23.75;19.35;;;;;;;15.26;68.52;101521.50;6305878;22;20003;-59
2022/09/12 03:06:50;;;;;;;23.30;19.35;;;;;;;15.20;68.85;101511.34;6306238;22;20007;-59
2022/09/12 03:09:43;;;;;;;21.90;19.60;;;;;;;15.29;68.25;101512.56;6302788;22;20013;-59
2022/09/12 03:12:08;;;;;;;23.08;20.10;;;;;;;15.23;68.33;101516.41;6304832;22;20432;-58
2022/09/12 03:14:46;;;;;;;20.98;18.58;;;;;;;15.18;68.41;101511.63;6304051;22;20037;-58
2022/09/12 03:17:34;;;;;;;23.15;20.30;;;;;;;15.27;68.59;101517.56;6304030;22;20013;-59
2022/09/12 03:20:02;;;;;;;23.95;19.88;;;;;;;15.15;68.64;101514.97;6303726;22;20007;-59
2022/09/12 03:22:55;;;;;;;25.98;20.60;;;;;;;15.23;68.50;101506.06;6303970;22;20359;-59
2022/09/12 03:25:27;;;;;;;22.63;19.60;;;;;;;15.12;68.91;101507.09;6303502;22;20372;-59
2022/09/12 03:28:06;;;;;;;21.65;19.33;;;;;;;15.16;68.91;101507.41;6305098;22;20003;-59
2022/09/12 03:30:38;;;;;;;22.10;19.50;;;;;;;15.11;68.69;101508.22;6303071;22;20007;-59
2022/09/12 03:33:03;;;;;;;21.60;19.13;;;;;;;15.10;68.68;101505.72;6305613;22;20091;-59
2022/09/12 03:35:28;;;;;;;22.30;19.90;;;;;;;15.09;68.69;101504.00;6304929;22;20038;-59
2022/09/12 03:37:54;;;;;;;22.30;19.50;;;;;;;15.11;68.53;101504.59;6304189;22;20037;-58
2022/09/12 03:40:19;;;;;;;23.38;19.42;;;;;;;15.06;68.86;101511.00;6304844;22;20025;-59
2022/09/12 03:42:44;;;;;;;24.13;20.15;;;;;;;15.09;68.92;101504.00;6303392;22;20451;-59
2022/09/12 03:45:10;;;;;;;24.88;19.63;;;;;;;15.07;68.94;101501.47;6304198;22;20011;-59
2022/09/12 03:47:36;;;;;;;22.15;19.38;;;;;;;15.05;69.00;101502.84;6303220;22;20133;-59
2022/09/12 03:50:02;;;;;;;24.13;20.60;;;;;;;15.09;68.86;101504.88;6304584;22;20765;-58
2022/09/12 03:52:27;;;;;;;23.67;19.15;;;;;;;15.03;69.14;101505.94;6303191;22;20007;-57
2022/09/12 03:54:52;;;;;;;24.75;18.85;;;;;;;15.03;68.85;101494.75;6304917;22;20004;-58
2022/09/12 03:57:18;;;;;;;23.80;19.25;;;;;;;15.07;68.96;101495.06;6304736;22;20424;-58
2022/09/12 03:59:43;;;;;;;23.50;19.48;;;;;;;15.04;68.77;101495.56;6303593;22;20003;-58
2022/09/12 04:02:11;;;;;;;22.25;18.90;;;;;;;15.05;68.82;101494.47;6303744;22;20003;-57
2022/09/12 04:04:37;;;;;;;21.95;19.30;;;;;;;15.05;68.93;101491.66;6304049;22;20009;-58
2022/09/12 04:07:03;;;;;;;21.83;18.98;;;;;;;15.00;69.03;101488.84;6304606;22;20102;-58
2022/09/12 04:09:28;;;;;;;21.52;18.63;;;;;;;15.02;68.93;101486.63;6305236;22;20011;-58
2022/09/12 04:11:53;;;;;;;22.33;18.45;;;;;;;15.00;69.17;101483.25;6301929;22;20003;-58
2022/09/12 04:14:19;;;;;;;22.45;19.88;;;;;;;14.96;69.23;101483.78;6304399;22;20058;-58
2022/09/12 04:16:44;;;;;;;21.63;19.20;;;;;;;14.98;69.48;101481.56;6304250;22;20029;-58
2022/09/12 04:19:11;;;;;;;26.15;19.95;;;;;;;14.98;69.73;101483.53;6301638;22;20003;-59
2022/09/12 04:21:36;;;;;;;22.95;19.20;;;;;;;14.95;69.52;101475.66;6305369;22;20019;-59
2022/09/12 04:24:01;;;;;;;25.92;20.20;;;;;;;14.96;69.71;101478.19;6303339;22;20015;-59
2022/09/12 04:26:28;;;;;;;29.15;20.58;;;;;;;14.94;69.77;101472.03;6305101;22;20082;-58
2022/09/12 04:28:56;;;;;;;24.73;20.63;;;;;;;14.96;69.97;101475.38;6306571;22;20032;-58
2022/09/12 04:31:22;;;;;;;24.85;20.63;;;;;;;14.96;70.05;101475.38;6305811;22;20010;-58
2022/09/12 04:33:53;;;;;;;23.20;19.55;;;;;;;15.03;70.08;101468.75;6305498;22;20281;-58
2022/09/12 04:36:19;;;;;;;24.93;20.83;;;;;;;15.03;70.29;101474.34;6307936;22;20003;-58
2022/09/12 04:38:46;;;;;;;24.30;20.90;;;;;;;15.00;70.03;101470.09;6306776;22;20608;-59
2022/09/12 04:41:27;;;;;;;22.98;20.42;;;;;;;15.01;70.06;101466.19;6306203;22;20489;-59
2022/09/12 04:44:00;;;;;;;23.90;20.60;;;;;;;14.99;70.50;101468.44;6306385;22;20099;-59
2022/09/12 04:46:26;;;;;;;25.83;21.38;;;;;;;14.97;70.30;101460.31;6307213;22;20662;-59
2022/09/12 04:48:51;;;;;;;24.98;20.70;;;;;;;14.99;70.29;101462.84;6304105;22;20022;-59
2022/09/12 04:51:20;;;;;;;25.35;21.48;;;;;;;15.00;70.33;101467.31;6305669;22;20025;-59
2022/09/12 04:53:53;;;;;;;24.05;20.52;;;;;;;14.97;70.56;101468.72;6305820;22;20003;-59
2022/09/12 04:56:19;;;;;;;24.42;20.85;;;;;;;14.97;70.42;101465.91;6307050;22;20427;-59
2022/09/12 04:58:45;;;;;;;22.67;19.98;;;;;;;14.98;70.27;101464.78;6307028;22;20003;-58
2022/09/12 05:01:13;;;;;;;23.08;20.13;;;;;;;14.94;70.56;101462.81;6304894;22;20049;-58
2022/09/12 05:03:39;;;;;;;25.45;21.13;;;;;;;14.94;70.68;101463.66;6306444;22;20082;-58
2022/09/12 05:06:06;;;;;;;26.42;21.38;;;;;;;14.88;70.60;101463.88;6305854;22;20740;-59
2022/09/12 05:08:34;;;;;;;23.67;20.33;;;;;;;14.92;70.82;101473.41;6305251;22;20013;-59
2022/09/12 05:11:17;;;;;;;25.55;20.65;;;;;;;14.95;70.69;101465.31;6307153;22;20000;-58
2022/09/12 05:13:43;;;;;;;27.88;21.70;;;;;;;14.92;70.75;101465.84;6306477;22;20014;-58
2022/09/12 05:16:11;;;;;;;25.67;21.85;;;;;;;14.87;70.99;101468.63;6305877;22;20408;-59
2022/09/12 05:18:37;;;;;;;23.40;20.90;;;;;;;14.92;71.25;101471.44;6305670;22;20317;-59
2022/09/12 05:21:06;;;;;;;24.45;21.67;;;;;;;14.92;71.21;101465.84;6306612;22;20011;-59
2022/09/12 05:23:32;;;;;;;25.02;21.23;;;;;;;14.93;71.05;101475.94;6304828;22;20003;-59
2022/09/12 05:25:58;;;;;;;26.50;21.58;;;;;;;14.93;71.28;101472.28;6306596;22;20009;-59
2022/09/12 05:28:28;;;;;;;25.00;20.65;;;;;;;14.93;71.37;101478.75;6306438;22;20011;-59
2022/09/12 05:31:14;;;;;;;26.27;21.13;;;;;;;14.99;71.18;101482.41;6305566;22;20011;-58
2022/09/12 05:33:43;;;;;;;26.17;21.58;;;;;;;14.92;71.67;101487.38;6305932;22;19999;-59
2022/09/12 05:36:23;;;;;;;27.85;21.95;;;;;;;14.98;71.56;101469.53;6305342;22;20014;-58
2022/09/12 05:38:48;;;;;;;27.90;21.95;;;;;;;14.97;71.62;101467.84;6306497;22;20042;-59
2022/09/12 05:41:16;;;;;;;26.83;21.95;;;;;;;14.94;72.04;101465.59;6303855;22;20007;-58
2022/09/12 05:43:42;;;;;;;26.58;22.45;;;;;;;14.95;71.95;101476.50;6302788;22;20008;-58
2022/09/12 05:46:13;;;;;;;30.02;22.60;;;;;;;14.98;72.33;101475.13;6304783;22;20003;-57
2022/09/12 05:48:40;;;;;;;30.92;22.77;;;;;;;14.98;72.38;101473.19;6304500;22;20014;-58
2022/09/12 05:51:11;;;;;;;27.13;21.92;;;;;;;14.98;72.16;101473.19;6302576;22;20015;-58
2022/09/12 05:53:39;;;;;;;28.88;22.63;;;;;;;15.02;72.12;101475.44;6304486;22;20459;-58
2022/09/12 05:56:08;;;;;;;29.98;21.08;;;;;;;15.00;72.49;101484.09;6304587;22;20431;-58
2022/09/12 05:58:35;;;;;;;29.27;22.05;;;;;;;15.00;72.69;101480.44;6297441;22;20000;-57
2022/09/12 06:01:12;;;;;;;31.88;22.98;;;;;;;15.08;72.41;101479.94;6303290;22;20035;-68
2022/09/12 06:03:50;;;;;;;33.80;22.02;;;;;;;15.08;72.71;101486.38;6303301;22;20482;-57
2022/09/12 06:06:17;;;;;;;30.60;21.95;;;;;;;15.11;72.88;101493.41;6301066;22;20079;-58
2022/09/12 06:08:46;;;;;;;34.17;23.17;;;;;;;15.07;73.03;101493.09;6302894;22;20007;-58
2022/09/12 06:11:14;;;;;;;28.33;22.40;;;;;;;15.07;73.44;101493.09;6298622;22;20034;-58
2022/09/12 06:13:41;;;;;;;31.35;23.02;;;;;;;15.10;73.51;101498.16;6301432;22;20065;-59
2022/09/12 06:16:10;;;;;;;28.70;23.25;;;;;;;15.12;73.54;101493.13;6301583;22;20004;-59
2022/09/12 06:18:37;;;;;;;27.60;22.90;;;;;;;15.11;73.58;101488.66;6300915;22;20007;-59
2022/09/12 06:21:10;;;;;;;31.38;22.23;;;;;;;15.18;73.57;101480.03;6300962;22;20065;-59
2022/09/12 06:23:36;;;;;;;27.23;22.73;;;;;;;15.14;73.76;101490.09;6300812;22;20077;-59
2022/09/12 06:26:03;;;;;;;28.05;21.73;;;;;;;15.17;73.71;101497.94;6302907;22;20031;-58
2022/09/12 06:28:29;;;;;;;28.23;22.58;;;;;;;15.11;74.04;101485.00;6304078;22;20005;-58
2022/09/12 06:31:03;;;;;;;28.58;23.02;;;;;;;15.13;73.91;101488.38;6304067;22;20065;-57
2022/09/12 06:33:29;;;;;;;28.92;21.83;;;;;;;15.13;73.82;101478.06;6304017;22;20007;-58
2022/09/12 06:35:54;;;;;;;28.70;21.60;;;;;;;15.19;73.67;101478.91;6302137;22;20526;-58
2022/09/12 06:38:19;;;;;;;31.13;22.52;;;;;;;15.19;73.71;101484.50;6302406;22;20007;-57
2022/09/12 06:40:45;;;;;;;32.92;23.70;;;;;;;15.18;74.08;101482.84;6303871;22;20049;-58
2022/09/12 06:43:12;;;;;;;30.73;22.65;;;;;;;15.23;74.11;101480.91;6302946;22;20477;-59
2022/09/12 06:45:38;;;;;;;27.75;21.98;;;;;;;15.25;74.22;101480.66;6302940;22;20053;-58
2022/09/12 06:48:03;;;;;;;29.92;23.20;;;;;;;15.31;74.25;101485.16;6302660;22;20003;-58
2022/09/12 06:50:28;;;;;;;32.42;23.45;;;;;;;15.36;74.49;101475.94;6301987;22;20391;-58
2022/09/12 06:52:54;;;;;;;28.02;21.77;;;;;;;15.40;74.79;101477.09;6303827;22;20010;-58
2022/09/12 06:55:19;;;;;;;31.02;22.42;;;;;;;15.41;74.76;101485.22;6302151;22;20785;-59
2022/09/12 06:57:44;;;;;;;26.52;21.75;;;;;;;15.47;74.38;101484.13;6302038;22;20007;-58
2022/09/12 07:00:10;;;;;;;27.13;22.02;;;;;;;15.45;74.51;101480.78;6301467;22;20007;-58
2022/09/12 07:02:35;;;;;;;27.20;20.85;;;;;;;15.50;74.32;101476.31;6303469;22;20022;-57
2022/09/12 07:05:01;;;;;;;26.00;21.90;;;;;;;15.49;74.39;101475.50;6304196;22;20003;-57
2022/09/12 07:07:26;;;;;;;29.10;21.95;;;;;;;15.50;73.87;101471.56;6303311;22;20010;-57
2022/09/12 07:09:51;;;;;;;26.17;20.63;;;;;;;15.56;74.52;101480.81;6304851;22;20513;-57
2022/09/12 07:12:17;;;;;;;21.52;17.20;;;;;;;15.74;76.23;101479.56;6302517;22;20011;-57
2022/09/12 07:14:42;;;;;;;28.08;22.33;;;;;;;15.73;74.42;101481.53;6302259;22;20034;-57
2022/09/12 07:17:07;;;;;;;28.60;21.88;;;;;;;15.78;74.19;101477.91;6303555;22;20340;-57
2022/09/12 07:19:33;;;;;;;26.45;21.08;;;;;;;15.79;74.32;101479.56;6302992;22;20204;-58
2022/09/12 07:21:59;;;;;;;26.52;21.95;;;;;;;15.84;74.49;101476.81;6302424;22;20003;-57
2022/09/12 07:24:25;;;;;;;24.83;21.10;;;;;;;15.91;74.10;101478.22;6303553;22;20006;-58
2022/09/12 07:26:50;;;;;;;28.15;15.95;;;;;;;16.06;74.31;101480.25;6300828;22;20007;-58
2022/09/12 07:29:16;;;;;;;179.18;25.80;;;;;;;16.26;74.61;101473.88;6302835;22;20007;-57
2022/09/12 07:31:41;;;;;;;33.58;16.45;;;;;;;16.38;74.33;101468.84;6302980;22;20011;-58
2022/09/12 07:34:06;;;;;;;25.48;14.82;;;;;;;16.60;73.89;101464.97;6303253;22;20031;-58
2022/09/12 07:36:33;;;;;;;29.02;12.73;;;;;;;16.96;73.15;101465.84;6302869;22;20015;-58
2022/09/12 07:38:58;;;;;;;29.33;19.30;;;;;;;17.02;71.85;101463.91;6303679;22;20419;-58
2022/09/12 07:41:26;;;;;;;27.10;19.98;;;;;;;17.04;71.52;101475.66;6300382;22;20015;-58
2022/09/12 07:43:57;;;;;;;22.38;15.00;;;;;;;17.21;71.04;101476.19;6299357;22;20034;-57
2022/09/12 07:46:24;;;;;;;19.15;14.05;;;;;;;17.38;70.16;101478.72;6302682;22;20027;-57
2022/09/12 07:48:54;;;;;;;17.50;12.63;;;;;;;17.61;70.02;101474.44;6300805;22;20105;-58
2022/09/12 07:51:19;;;;;;;15.40;13.23;;;;;;;17.86;69.48;101480.00;6300753;22;20442;-58
2022/09/12 07:53:45;;;;;;;19.52;13.05;;;;;;;18.01;69.12;101469.84;6301053;22;20007;-57
2022/09/12 07:56:11;;;;;;;18.67;14.40;;;;;;;18.14;68.87;101474.81;6300931;22;20003;-57
2022/09/12 07:58:39;;;;;;;19.38;15.25;;;;;;;18.23;68.53;101478.69;6303106;22;20011;-57
2022/09/12 08:01:13;;;;;;;14.50;12.27;;;;;;;18.40;68.20;101483.94;6302014;22;20007;-57
2022/09/12 08:03:40;;;;;;;15.40;13.63;;;;;;;18.51;67.62;101476.28;6302302;22;20445;-57
2022/09/12 08:06:11;;;;;;;19.17;14.02;;;;;;;18.58;67.28;101482.41;6301896;22;20074;-57
2022/09/12 08:08:37;;;;;;;16.38;12.00;;;;;;;18.70;67.00;101465.19;6303942;22;19999;-58
2022/09/12 08:11:05;;;;;;;14.30;10.52;;;;;;;18.82;66.68;101474.09;6303445;22;20007;-58
2022/09/12 08:13:31;;;;;;;16.58;12.52;;;;;;;18.87;66.99;101476.91;6303925;22;20044;-57
2022/09/12 08:16:02;;;;;;;15.82;11.23;;;;;;;18.96;66.21;101471.47;6304134;22;20003;-57
2022/09/12 08:18:29;;;;;;;12.57;11.32;;;;;;;19.08;66.54;101472.75;6302952;22;20010;-57
2022/09/12 08:20:59;;;;;;;15.85;12.57;;;;;;;19.12;66.13;101479.47;6302680;22;20011;-57
2022/09/12 08:23:26;;;;;;;14.45;11.63;;;;;;;19.22;65.92;101478.56;6302313;22;20042;-57
2022/09/12 08:25:58;;;;;;;16.85;10.40;;;;;;;19.32;65.56;101478.44;6302279;22;19999;-57
2022/09/12 08:28:24;;;;;;;13.57;10.80;;;;;;;19.35;65.32;101486.28;6303500;22;20074;-57
2022/09/12 08:30:50;;;;;;;13.40;10.82;;;;;;;19.47;65.52;101487.88;6303537;22;20006;-58
2022/09/12 08:33:16;;;;;;;16.70;11.40;;;;;;;19.53;65.27;101492.28;6302828;22;20039;-57
2022/09/12 08:35:41;;;;;;;14.27;12.77;;;;;;;19.48;65.19;101486.72;6303116;22;20007;-57
2022/09/12 08:38:06;;;;;;;15.02;11.63;;;;;;;19.55;65.21;101490.03;6303862;22;20003;-57
2022/09/12 08:40:42;;;;;;;13.73;12.32;;;;;;;19.59;65.22;101496.75;6303499;22;20007;-57
2022/09/12 08:43:50;;;;;;;13.88;10.35;;;;;;;19.63;65.77;101489.41;6301727;22;20003;-57
2022/09/12 08:46:31;;;;;;;14.60;12.43;;;;;;;19.71;65.24;101485.94;6302934;22;20040;-57
2022/09/12 08:49:00;;;;;;;14.60;10.27;;;;;;;19.86;65.30;101488.56;6304051;22;20011;-57
2022/09/12 08:51:27;;;;;;;17.85;12.55;;;;;;;19.87;65.43;101486.59;6303586;22;20034;-58
2022/09/12 08:53:55;;;;;;;14.57;13.00;;;;;;;19.91;64.78;101486.84;6302199;22;20003;-57
2022/09/12 08:56:20;;;;;;;14.35;10.30;;;;;;;20.00;64.98;101485.03;6303739;22;20016;-57
2022/09/12 08:58:46;;;;;;;10.23;9.05;;;;;;;20.08;64.98;101478.72;6302525;22;20007;-57
2022/09/12 09:01:28;;;;;;;15.65;13.35;;;;;;;20.15;65.48;101476.38;6301692;22;20011;-57
2022/09/12 09:04:06;;;;;;;;;;;;;;;20.12;66.03;101479.78;6304307;22;20034;-57
2022/09/12 09:06:58;;;;;;;15.00;12.35;;;;;;;20.24;65.35;101476.53;6304166;22;19927;-57
2022/09/12 09:09:42;;;;;;;16.13;11.50;;;;;;;20.30;65.15;101472.50;6306495;22;20015;-57
2022/09/12 09:12:16;;;;;;;13.63;11.00;;;;;;;20.41;64.61;101468.41;6304186;22;20011;-57
2022/09/12 09:15:00;;;;;;;13.52;10.57;;;;;;;20.43;64.56;101463.28;6303432;22;20007;-57
2022/09/12 09:17:40;;;;;;;11.48;8.35;;;;;;;20.46;64.22;101461.84;6306040;22;20027;-57
2022/09/12 09:20:31;;;;;;;12.50;11.18;;;;;;;20.52;65.12;101463.47;6304334;22;20014;-57
2022/09/12 09:23:14;;;;;;;11.90;8.63;;;;;;;20.54;64.21;101459.19;6304223;22;20003;-57
2022/09/12 09:25:55;;;;;;;12.40;8.82;;;;;;;20.58;63.67;101460.25;6306380;22;20007;-57
2022/09/12 09:28:34;;;;;;;10.35;7.60;;;;;;;20.65;63.18;101462.69;6304631;22;20106;-57
2022/09/12 09:31:00;;;;;;;9.40;8.30;;;;;;;20.70;63.16;101458.97;6303911;22;20007;-57
2022/09/12 09:33:31;;;;;;;10.25;7.40;;;;;;;20.76;62.37;101455.75;6305869;22;20060;-57
2022/09/12 09:36:24;;;;;;;10.18;9.18;;;;;;;20.80;63.41;101456.81;6304156;22;20012;-57
2022/09/12 09:39:00;;;;;;;10.57;9.18;;;;;;;20.83;62.97;101459.03;6305503;22;20015;-57
2022/09/12 09:41:40;;;;;;;9.23;7.85;;;;;;;20.90;61.38;101450.16;6306136;22;19999;-57
2022/09/12 09:44:06;;;;;;;8.80;7.97;;;;;;;20.99;61.14;101447.47;6304634;22;20053;-57
2022/09/12 09:46:32;;;;;;;7.00;6.30;;;;;;;20.96;60.57;101445.28;6301903;22;20011;-57
2022/09/12 09:49:02;;;;;;;9.40;8.18;;;;;;;20.91;61.29;101437.75;6303942;22;20027;-57
2022/09/12 09:51:33;;;;;;;10.50;8.25;;;;;;;20.99;61.27;101439.03;6303655;22;19999;-57
2022/09/12 09:54:07;;;;;;;10.70;7.97;;;;;;;21.05;61.27;101440.59;6304280;22;20437;-58
2022/09/12 09:56:35;;;;;;;8.13;7.15;;;;;;;21.11;60.46;101428.06;6301987;22;20011;-58
2022/09/12 09:59:15;;;;;;;11.45;7.45;;;;;;;21.10;60.78;101426.38;6305533;22;20098;-58
2022/09/12 10:02:07;;;;;;;10.20;8.88;;;;;;;21.12;60.72;101429.72;6303206;22;20082;-58
2022/09/12 10:04:38;;;;;;;8.65;7.50;;;;;;;21.24;60.56;101417.94;6284172;22;20007;-63
2022/09/12 10:07:04;;;;;;;10.38;7.70;;;;;;;21.19;60.69;101424.53;6305595;22;20331;-58
2022/09/12 10:09:35;;;;;;;9.45;8.45;;;;;;;21.22;60.13;101414.56;6305160;22;20007;-57
2022/09/12 10:12:20;;;;;;;9.90;7.22;;;;;;;21.19;61.15;101413.22;6301416;22;20011;-57
2022/09/12 10:15:01;;;;;;;8.15;7.35;;;;;;;21.19;61.20;101412.41;6304253;22;20082;-57
2022/09/12 10:17:41;;;;;;;8.52;6.72;;;;;;;21.21;60.66;101405.28;6304961;22;20007;-57
2022/09/12 10:20:36;;;;;;;11.07;7.75;;;;;;;21.28;61.07;101405.72;6302933;22;20003;-56
2022/09/12 10:23:36;;;;;;;8.40;6.20;;;;;;;21.28;60.85;101397.22;6286516;22;20007;-57
2022/09/12 10:26:07;;;;;;;8.32;6.07;;;;;;;21.35;59.41;101394.03;6279826;22;20003;-56
2022/09/12 10:28:38;;;;;;;9.30;6.93;;;;;;;21.33;58.58;101388.69;6304426;22;20464;-57
2022/09/12 10:31:06;;;;;;;9.35;5.82;;;;;;;21.31;58.74;101390.13;6303468;22;20205;-58
2022/09/12 10:33:41;;;;;;;8.75;7.40;;;;;;;21.28;57.79;101391.59;6300735;22;20102;-57
2022/09/12 10:36:06;;;;;;;7.93;6.13;;;;;;;21.26;57.74;101382.63;6304036;22;20003;-57
2022/09/12 10:38:31;;;;;;;8.18;6.63;;;;;;;21.39;58.72;101380.13;6304302;22;20297;-58
2022/09/12 10:41:08;;;;;;;7.95;6.93;;;;;;;21.38;59.38;101386.91;6303136;22;20689;-58
2022/09/12 10:43:34;;;;;;;7.50;6.63;;;;;;;21.47;58.96;101373.75;6304238;22;20007;-57
2022/09/12 10:46:15;;;;;;;8.73;6.47;;;;;;;21.54;59.55;101371.34;6302939;22;20008;-57
2022/09/12 10:48:42;;;;;;;7.32;6.22;;;;;;;21.61;57.22;101370.91;6304721;22;20505;-57
2022/09/12 10:51:26;;;;;;;5.35;4.80;;;;;;;21.64;58.00;101365.47;6303427;22;20074;-58
2022/09/12 10:53:53;;;;;;;5.72;4.85;;;;;;;21.68;57.55;101357.19;6303579;22;19999;-57
2022/09/12 10:56:48;;;;;;;5.38;4.72;;;;;;;21.67;58.17;101356.38;6302304;22;20042;-57
2022/09/12 10:59:20;;;;;;;6.10;5.05;;;;;;;21.72;57.09;101352.59;6304466;22;20018;-57
2022/09/12 11:02:09;;;;;;;7.93;5.65;;;;;;;21.76;57.36;101345.97;6301342;22;20139;-57
2022/09/12 11:04:46;;;;;;;9.32;5.45;;;;;;;21.79;57.75;101345.34;6303928;22;20015;-57
2022/09/12 11:07:34;;;;;;;6.93;4.43;;;;;;;21.84;57.54;101350.06;6302669;22;20499;-56
2022/09/12 11:10:25;;;;;;;5.57;4.85;;;;;;;21.86;55.64;101336.44;6303914;22;20011;-57
2022/09/12 11:13:03;;;;;;;5.18;4.55;;;;;;;21.84;55.95;101343.56;6282898;22;20022;-57
2022/09/12 11:16:04;;;;;;;4.50;4.10;;;;;;;21.89;55.81;101343.44;6301994;22;20358;-58
2022/09/12 11:18:52;;;;;;;4.55;4.13;;;;;;;21.96;56.08;101341.84;6304934;22;20003;-58
2022/09/12 11:21:29;;;;;;;7.43;4.68;;;;;;;21.90;55.81;101333.84;6302877;22;20359;-57
2022/09/12 11:24:18;;;;;;;6.10;4.40;;;;;;;22.02;56.27;101328.44;6304339;22;20386;-58
2022/09/12 11:27:14;;;;;;;7.63;4.28;;;;;;;22.07;56.66;101325.50;6302293;22;20629;-57
2022/09/12 11:29:47;;;;;;;5.35;4.30;;;;;;;22.09;55.81;101325.19;6302755;22;20437;-58
2022/09/12 11:32:35;;;;;;;6.45;4.40;;;;;;;22.09;55.52;101326.03;6303785;22;20018;-58
2022/09/12 11:35:23;;;;;;;4.35;3.95;;;;;;;22.13;55.93;101329.06;6301387;22;20011;-58